Time;durP1;ratioP1;P1;durP2;ratioP2;P2;SDS_P1;SDS_P2;PMS_P1;PMS_P2;Temp;Humidity;BMP_temperature;BMP_pressure;BME280_temperature;BME280_humidity;BME280_pressure;Samples;Min_cycle;Max_cycle;Signal;HPM_P1;HPM_P2
2022/10/10 00:01:41;;;;;;;3.90;1.85;;;;;;;;;;5054067;28;20055;-55
2022/10/10 00:04:18;;;;;;;7.28;1.83;;;;;;;;;;5034458;28;20053;-54
2022/10/10 00:06:47;;;;;;;3.67;1.65;;;;;;;;;;5046777;28;20053;-55
2022/10/10 00:09:17;;;;;;;5.40;1.88;;;;;;;;;;5048822;28;20045;-57
2022/10/10 00:11:43;;;;;;;4.13;1.60;;;;;;;;;;5043246;28;20052;-54
2022/10/10 00:14:12;;;;;;;2.78;1.00;;;;;;;;;;5053716;28;20053;-55
2022/10/10 00:16:42;;;;;;;3.97;1.70;;;;;;;;;;5056654;28;20053;-53
2022/10/10 00:19:24;;;;;;;5.38;2.22;;;;;;;;;;5055207;28;20438;-53
2022/10/10 00:21:51;;;;;;;6.30;2.80;;;;;;;;;;5065224;28;20049;-54
2022/10/10 00:24:20;;;;;;;6.78;2.60;;;;;;;;;;5039395;28;20064;-54
2022/10/10 00:26:47;;;;;;;6.43;3.38;;;;;;;;;;5053392;28;20061;-52
2022/10/10 00:29:17;;;;;;;8.40;3.38;;;;;;;;;;5064645;28;20053;-55
2022/10/10 00:31:45;;;;;;;6.88;2.05;;;;;;;;;;5044772;28;20049;-56
2022/10/10 00:34:14;;;;;;;5.03;2.28;;;;;;;;;;5050823;28;20086;-56
2022/10/10 00:36:40;;;;;;;5.13;2.00;;;;;;;;;;5050057;28;20052;-53
2022/10/10 00:39:10;;;;;;;7.93;3.65;;;;;;;;;;5049459;28;20063;-53
2022/10/10 00:41:36;;;;;;;10.43;4.35;;;;;;;;;;5034226;28;20053;-53
2022/10/10 00:44:13;;;;;;;7.82;4.30;;;;;;;;;;5045925;28;20045;-55
2022/10/10 00:46:43;;;;;;;7.85;3.70;;;;;;;;;;5033524;28;20132;-53
2022/10/10 00:49:13;;;;;;;5.63;2.60;;;;;;;;;;5051091;28;20045;-55
2022/10/10 00:51:44;;;;;;;7.00;2.00;;;;;;;;;;5052779;28;20053;-53
2022/10/10 00:54:15;;;;;;;7.05;1.98;;;;;;;;;;5043422;28;20064;-54
2022/10/10 00:56:51;;;;;;;5.05;2.05;;;;;;;;;;5033933;28;20109;-52
2022/10/10 00:59:20;;;;;;;7.57;1.80;;;;;;;;;;5033553;28;20057;-54
2022/10/10 01:01:47;;;;;;;4.88;2.13;;;;;;;;;;5033132;28;20489;-52
2022/10/10 01:04:31;;;;;;;5.88;2.13;;;;;;;;;;5054593;28;20068;-51
2022/10/10 01:07:01;;;;;;;5.30;1.98;;;;;;;;;;5072795;28;20193;-54
2022/10/10 01:09:32;;;;;;;7.25;2.50;;;;;;;;;;5045895;28;20124;-53
2022/10/10 01:12:03;;;;;;;9.05;2.88;;;;;;;;;;5046309;28;20049;-53
2022/10/10 01:14:37;;;;;;;4.63;2.20;;;;;;;;;;5052475;28;20049;-52
2022/10/10 01:17:14;;;;;;;5.53;2.10;;;;;;;;;;5052708;28;20049;-55
2022/10/10 01:20:19;;;;;;;5.28;2.60;;;;;;;;;;5049259;28;20041;-56
2022/10/10 01:22:56;;;;;;;4.75;1.98;;;;;;;;;;5055806;28;20131;-54
2022/10/10 01:25:28;;;;;;;5.70;2.53;;;;;;;;;;5072760;28;20067;-54
2022/10/10 01:28:00;;;;;;;5.63;2.50;;;;;;;;;;5068586;28;20136;-53
2022/10/10 01:30:38;;;;;;;6.18;2.45;;;;;;;;;;5063476;28;20037;-56
2022/10/10 01:33:08;;;;;;;6.40;2.75;;;;;;;;;;5054449;28;20057;-55
2022/10/10 01:35:40;;;;;;;5.57;2.60;;;;;;;;;;5052405;28;20061;-56
2022/10/10 01:38:19;;;;;;;5.00;1.92;;;;;;;;;;5052668;28;20045;-53
2022/10/10 01:40:53;;;;;;;5.35;1.95;;;;;;;;;;5052540;28;20053;-56
2022/10/10 01:43:22;;;;;;;3.22;1.30;;;;;;;;;;5047938;28;20053;-56
2022/10/10 01:45:57;;;;;;;4.25;1.50;;;;;;;;;;5032671;28;20049;-53
2022/10/10 01:48:29;;;;;;;4.05;1.40;;;;;;;;;;5032943;28;20053;-55
2022/10/10 01:51:22;;;;;;;3.38;1.63;;;;;;;;;;5052281;28;20055;-54
2022/10/10 01:53:59;;;;;;;4.50;1.70;;;;;;;;;;5044555;28;20076;-52
2022/10/10 01:56:33;;;;;;;5.45;2.28;;;;;;;;;;5032955;28;20085;-56
2022/10/10 01:59:09;;;;;;;4.68;1.92;;;;;;;;;;5032430;28;20120;-56
2022/10/10 02:01:48;;;;;;;4.70;1.88;;;;;;;;;;5046136;28;20111;-52
2022/10/10 02:04:18;;;;;;;6.05;2.28;;;;;;;;;;5040017;28;20057;-55
2022/10/10 02:06:57;;;;;;;6.47;2.20;;;;;;;;;;5037588;28;20068;-56
2022/10/10 02:09:31;;;;;;;5.18;2.83;;;;;;;;;;5058751;28;20519;-56
2022/10/10 02:11:58;;;;;;;7.35;2.45;;;;;;;;;;5055367;28;20504;-55
2022/10/10 02:14:29;;;;;;;6.30;2.40;;;;;;;;;;5043282;28;20589;-56
2022/10/10 02:17:02;;;;;;;5.25;2.35;;;;;;;;;;5062948;28;20053;-53
2022/10/10 02:19:32;;;;;;;5.47;2.22;;;;;;;;;;5059298;28;20044;-52
2022/10/10 02:22:03;;;;;;;6.43;2.38;;;;;;;;;;5063543;28;20083;-52
2022/10/10 02:24:33;;;;;;;8.00;2.40;;;;;;;;;;5060796;28;20053;-53
2022/10/10 02:27:05;;;;;;;9.63;2.72;;;;;;;;;;5055744;28;20401;-54
2022/10/10 02:29:34;;;;;;;8.32;2.63;;;;;;;;;;5066363;28;20077;-56
2022/10/10 02:32:19;;;;;;;7.55;2.60;;;;;;;;;;5067313;28;20059;-55
2022/10/10 02:34:57;;;;;;;5.88;2.45;;;;;;;;;;5055649;28;20134;-55
2022/10/10 02:37:26;;;;;;;4.95;2.20;;;;;;;;;;5042583;28;20448;-52
2022/10/10 02:40:02;;;;;;;5.10;2.28;;;;;;;;;;5038513;28;20060;-52
2022/10/10 02:42:32;;;;;;;5.50;2.10;;;;;;;;;;5053050;28;20462;-54
2022/10/10 02:44:59;;;;;;;3.92;1.92;;;;;;;;;;5045890;28;20103;-54
2022/10/10 02:47:43;;;;;;;7.00;1.90;;;;;;;;;;5054760;28;20416;-52
2022/10/10 02:50:12;;;;;;;4.00;1.95;;;;;;;;;;5049637;28;20068;-52
2022/10/10 02:52:38;;;;;;;5.90;2.33;;;;;;;;;;5039018;28;20098;-52
2022/10/10 02:55:08;;;;;;;6.25;1.80;;;;;;;;;;5035868;28;20056;-52
2022/10/10 02:57:36;;;;;;;7.55;2.75;;;;;;;;;;5035717;28;20049;-53
2022/10/10 03:00:06;;;;;;;6.32;2.20;;;;;;;;;;5046149;28;20068;-54
2022/10/10 03:02:42;;;;;;;4.80;2.25;;;;;;;;;;5046479;28;20458;-53
2022/10/10 03:05:12;;;;;;;4.03;1.50;;;;;;;;;;5039493;28;20054;-53
2022/10/10 03:07:41;;;;;;;6.22;2.00;;;;;;;;;;5040748;28;20451;-54
2022/10/10 03:10:18;;;;;;;4.72;2.42;;;;;;;;;;5050862;28;20061;-55
2022/10/10 03:12:44;;;;;;;4.82;2.40;;;;;;;;;;5043345;28;20433;-53
2022/10/10 03:15:14;;;;;;;5.20;2.50;;;;;;;;;;5038641;28;20056;-56
2022/10/10 03:17:50;;;;;;;5.38;2.83;;;;;;;;;;5052054;28;20060;-52
2022/10/10 03:20:19;;;;;;;8.75;2.50;;;;;;;;;;5049220;28;20054;-52
2022/10/10 03:22:46;;;;;;;8.50;3.05;;;;;;;;;;5042465;28;20543;-52
2022/10/10 03:25:16;;;;;;;6.43;2.63;;;;;;;;;;5038292;28;20398;-52
2022/10/10 03:27:43;;;;;;;6.35;2.75;;;;;;;;;;5042453;28;20089;-55
2022/10/10 03:30:16;;;;;;;7.85;2.80;;;;;;;;;;5034340;28;20526;-52
2022/10/10 03:32:58;;;;;;;6.45;2.65;;;;;;;;;;5040753;28;20060;-54
2022/10/10 03:35:34;;;;;;;5.25;3.05;;;;;;;;;;5049228;28;20045;-55
2022/10/10 03:38:02;;;;;;;4.22;2.13;;;;;;;;;;5034253;28;20486;-54
2022/10/10 03:40:32;;;;;;;5.32;2.60;;;;;;;;;;5034363;28;20062;-52
2022/10/10 03:43:03;;;;;;;6.88;2.80;;;;;;;;;;5049417;28;20053;-53
2022/10/10 03:45:32;;;;;;;6.20;2.78;;;;;;;;;;5054831;28;20434;-54
2022/10/10 03:47:59;;;;;;;7.07;3.15;;;;;;;;;;5054526;28;20064;-55
2022/10/10 03:50:36;;;;;;;6.80;3.50;;;;;;;;;;5038369;28;20378;-54
2022/10/10 03:53:04;;;;;;;9.02;4.10;;;;;;;;;;5044864;28;20047;-55
2022/10/10 03:55:31;;;;;;;9.45;3.25;;;;;;;;;;5041801;28;20500;-53
2022/10/10 03:58:00;;;;;;;8.68;3.58;;;;;;;;;;5034469;28;20041;-52
2022/10/10 04:00:30;;;;;;;7.32;3.75;;;;;;;;;;5033797;28;20484;-55
2022/10/10 04:02:58;;;;;;;6.45;3.85;;;;;;;;;;5034726;28;20049;-54
2022/10/10 04:05:26;;;;;;;7.00;4.20;;;;;;;;;;5042715;28;20072;-52
2022/10/10 04:07:56;;;;;;;7.60;3.85;;;;;;;;;;5040373;28;20091;-52
2022/10/10 04:10:26;;;;;;;9.07;4.68;;;;;;;;;;5034109;28;20501;-53
2022/10/10 04:12:57;;;;;;;7.30;3.90;;;;;;;;;;5037987;28;20045;-55
2022/10/10 04:15:26;;;;;;;10.55;4.38;;;;;;;;;;5041569;28;20088;-53
2022/10/10 04:17:56;;;;;;;9.20;3.88;;;;;;;;;;5035727;28;20174;-53
2022/10/10 04:20:23;;;;;;;8.02;4.20;;;;;;;;;;5052424;28;20063;-55
2022/10/10 04:22:49;;;;;;;10.95;4.80;;;;;;;;;;5048874;28;20061;-53
2022/10/10 04:25:31;;;;;;;16.63;4.90;;;;;;;;;;5038848;28;20049;-53
2022/10/10 04:28:01;;;;;;;8.05;4.45;;;;;;;;;;5041605;28;20061;-54
2022/10/10 04:30:39;;;;;;;13.85;5.03;;;;;;;;;;5034859;28;20120;-53
2022/10/10 04:33:09;;;;;;;15.20;5.25;;;;;;;;;;5036535;28;20658;-53
2022/10/10 04:35:39;;;;;;;11.13;5.13;;;;;;;;;;5044962;28;20115;-52
2022/10/10 04:38:07;;;;;;;14.65;5.55;;;;;;;;;;5046152;28;20094;-52
2022/10/10 04:40:41;;;;;;;15.40;7.35;;;;;;;;;;5051073;28;20041;-54
2022/10/10 04:43:08;;;;;;;15.60;7.38;;;;;;;;;;5048720;28;20053;-52
2022/10/10 04:45:38;;;;;;;14.68;6.88;;;;;;;;;;5053206;28;20048;-52
2022/10/10 04:48:08;;;;;;;12.48;5.60;;;;;;;;;;5052263;28;20053;-51
2022/10/10 04:50:39;;;;;;;14.88;6.30;;;;;;;;;;5052230;28;20056;-52
2022/10/10 04:53:07;;;;;;;15.60;6.65;;;;;;;;;;5051513;28;20055;-52
2022/10/10 04:55:34;;;;;;;13.70;6.47;;;;;;;;;;5042452;28;20055;-52
2022/10/10 04:58:16;;;;;;;12.93;6.50;;;;;;;;;;5047575;28;20123;-52
2022/10/10 05:00:46;;;;;;;16.23;6.75;;;;;;;;;;5051738;28;20044;-55
2022/10/10 05:03:13;;;;;;;12.85;6.22;;;;;;;;;;5047022;28;20045;-52
2022/10/10 05:05:43;;;;;;;14.57;5.97;;;;;;;;;;5049791;28;20056;-52
2022/10/10 05:08:12;;;;;;;12.80;6.28;;;;;;;;;;5046053;28;20052;-51
2022/10/10 05:10:42;;;;;;;17.58;6.78;;;;;;;;;;5042678;28;20041;-54
2022/10/10 05:13:21;;;;;;;14.30;6.45;;;;;;;;;;5045816;28;20053;-55
2022/10/10 05:15:52;;;;;;;17.63;6.53;;;;;;;;;;5043990;28;20052;-52
2022/10/10 05:18:21;;;;;;;18.23;7.55;;;;;;;;;;5057297;28;20465;-52
2022/10/10 05:20:51;;;;;;;11.00;6.63;;;;;;;;;;5053265;28;20060;-55
2022/10/10 05:23:19;;;;;;;19.45;7.57;;;;;;;;;;5055077;28;20080;-55
2022/10/10 05:25:51;;;;;;;16.42;9.10;;;;;;;;;;5046718;28;20053;-56
2022/10/10 05:28:23;;;;;;;15.23;5.82;;;;;;;;;;5032440;28;20062;-53
2022/10/10 05:30:50;;;;;;;18.30;6.85;;;;;;;;;;5032322;28;20139;-54
2022/10/10 05:33:17;;;;;;;15.30;6.72;;;;;;;;;;5032587;28;20056;-52
2022/10/10 05:35:44;;;;;;;17.98;7.18;;;;;;;;;;5038710;28;20060;-52
2022/10/10 05:38:13;;;;;;;16.63;7.00;;;;;;;;;;5032523;28;20061;-54
2022/10/10 05:40:43;;;;;;;13.10;6.57;;;;;;;;;;5032430;28;20046;-53
2022/10/10 05:43:13;;;;;;;16.50;7.78;;;;;;;;;;5032626;28;20058;-53
2022/10/10 05:45:53;;;;;;;16.42;7.63;;;;;;;;;;5032822;28;20055;-54
2022/10/10 05:48:22;;;;;;;15.77;7.28;;;;;;;;;;5032539;28;20049;-55
2022/10/10 05:50:52;;;;;;;14.15;7.45;;;;;;;;;;5049070;28;20079;-54
2022/10/10 05:53:28;;;;;;;15.10;7.25;;;;;;;;;;5047599;28;20052;-54
2022/10/10 05:55:55;;;;;;;11.48;6.28;;;;;;;;;;5052288;28;20049;-53
2022/10/10 05:58:25;;;;;;;14.27;7.53;;;;;;;;;;5050953;28;20064;-53
2022/10/10 06:01:07;;;;;;;13.85;7.38;;;;;;;;;;5045954;28;20041;-51
2022/10/10 06:03:34;;;;;;;17.20;8.45;;;;;;;;;;5049628;28;20049;-53
2022/10/10 06:06:02;;;;;;;15.93;7.47;;;;;;;;;;5051010;28;20056;-54
2022/10/10 06:08:33;;;;;;;17.38;7.40;;;;;;;;;;5053254;28;20053;-53
2022/10/10 06:11:04;;;;;;;14.95;8.40;;;;;;;;;;5059593;28;20045;-53
2022/10/10 06:13:32;;;;;;;16.50;8.35;;;;;;;;;;5045752;28;20084;-53
2022/10/10 06:16:10;;;;;;;17.27;8.15;;;;;;;;;;5044588;28;20055;-53
2022/10/10 06:18:36;;;;;;;24.75;9.00;;;;;;;;;;5047016;28;20477;-50
2022/10/10 06:21:06;;;;;;;26.67;8.77;;;;;;;;;;5052214;28;20434;-51
2022/10/10 06:23:37;;;;;;;19.52;8.57;;;;;;;;;;5049735;28;20061;-51
2022/10/10 06:26:04;;;;;;;24.83;9.05;;;;;;;;;;5053192;28;20076;-50
2022/10/10 06:28:34;;;;;;;29.77;8.93;;;;;;;;;;5046822;28;20060;-52
2022/10/10 06:31:08;;;;;;;24.55;9.73;;;;;;;;;;5050758;28;20041;-49
2022/10/10 06:33:44;;;;;;;19.42;8.25;;;;;;;;;;5053065;28;20059;-50
2022/10/10 06:36:13;;;;;;;21.05;9.73;;;;;;;;;;5038799;28;20059;-50
2022/10/10 06:38:50;;;;;;;19.10;8.98;;;;;;;;;;5047341;28;20060;-49
2022/10/10 06:41:19;;;;;;;24.55;11.60;;;;;;;;;;5051430;28;20048;-48
2022/10/10 06:43:47;;;;;;;20.17;9.35;;;;;;;;;;5062629;28;20063;-50
2022/10/10 06:46:21;;;;;;;18.67;8.40;;;;;;;;;;5051633;28;20473;-51
2022/10/10 06:48:50;;;;;;;22.35;9.70;;;;;;;;;;5049684;28;20049;-54
2022/10/10 06:51:20;;;;;;;17.25;8.98;;;;;;;;;;5048976;28;20060;-50
2022/10/10 06:53:46;;;;;;;15.43;7.72;;;;;;;;;;5054540;28;20075;-49
2022/10/10 06:56:19;;;;;;;17.27;8.88;;;;;;;;;;5050262;28;20053;-50
2022/10/10 06:58:49;;;;;;;13.10;7.07;;;;;;;;;;5048779;28;20048;-50
2022/10/10 07:01:33;;;;;;;13.52;7.50;;;;;;;;;;5041694;28;20414;-51
2022/10/10 07:04:04;;;;;;;16.60;8.07;;;;;;;;;;5047199;28;20049;-54
2022/10/10 07:06:34;;;;;;;14.70;7.60;;;;;;;;;;5040726;28;20084;-51
2022/10/10 07:09:04;;;;;;;16.35;8.55;;;;;;;;;;5050031;28;20056;-50
2022/10/10 07:11:32;;;;;;;17.45;7.97;;;;;;;;;;5049557;28;20391;-50
2022/10/10 07:14:02;;;;;;;15.40;8.07;;;;;;;;;;5048464;28;20049;-49
2022/10/10 07:16:37;;;;;;;19.35;9.05;;;;;;;;;;5053242;28;20053;-50
2022/10/10 07:19:05;;;;;;;16.03;7.77;;;;;;;;;;5054654;28;20057;-50
2022/10/10 07:21:32;;;;;;;16.73;8.07;;;;;;;;;;5045765;28;20322;-51
2022/10/10 07:24:02;;;;;;;12.50;6.57;;;;;;;;;;5043276;28;20049;-51
2022/10/10 07:26:36;;;;;;;17.33;7.75;;;;;;;;;;5067390;28;20056;-51
2022/10/10 07:29:07;;;;;;;19.17;8.60;;;;;;;;;;5063896;28;20064;-51
2022/10/10 07:31:41;;;;;;;14.25;7.63;;;;;;;;;;5057803;28;20636;-51
2022/10/10 07:34:11;;;;;;;13.02;7.88;;;;;;;;;;5053001;28;20045;-49
2022/10/10 07:36:37;;;;;;;15.45;6.55;;;;;;;;;;5037978;28;20053;-49
2022/10/10 07:39:07;;;;;;;13.65;6.25;;;;;;;;;;5049502;28;20076;-49
2022/10/10 07:41:33;;;;;;;12.85;7.03;;;;;;;;;;5042832;28;20045;-49
2022/10/10 07:44:03;;;;;;;14.10;6.97;;;;;;;;;;5038877;28;20061;-53
2022/10/10 07:46:32;;;;;;;11.82;7.03;;;;;;;;;;5038893;28;20053;-49
2022/10/10 07:49:14;;;;;;;13.35;6.55;;;;;;;;;;5051269;28;20120;-50
2022/10/10 07:51:44;;;;;;;11.38;7.00;;;;;;;;;;5045167;28;20053;-48
2022/10/10 07:54:13;;;;;;;12.52;6.68;;;;;;;;;;5052795;28;20053;-55
2022/10/10 07:56:43;;;;;;;14.02;7.20;;;;;;;;;;5047639;28;20053;-53
2022/10/10 07:59:12;;;;;;;13.48;7.57;;;;;;;;;;5052547;28;20045;-54
2022/10/10 08:01:42;;;;;;;14.77;7.25;;;;;;;;;;5050204;28;20045;-54
2022/10/10 08:04:10;;;;;;;13.15;6.38;;;;;;;;;;5046433;28;20045;-53
2022/10/10 08:06:37;;;;;;;14.07;6.55;;;;;;;;;;5054254;28;20385;-52
2022/10/10 08:09:08;;;;;;;12.63;5.93;;;;;;;;;;5053421;28;20052;-50
2022/10/10 08:11:36;;;;;;;11.63;6.13;;;;;;;;;;5053873;28;20048;-49
2022/10/10 08:14:06;;;;;;;12.55;5.97;;;;;;;;;;5051387;28;20045;-49
2022/10/10 08:16:33;;;;;;;12.38;5.72;;;;;;;;;;5047916;28;20049;-50
2022/10/10 08:19:03;;;;;;;10.25;5.68;;;;;;;;;;5047224;28;20044;-51
2022/10/10 08:21:35;;;;;;;12.38;6.03;;;;;;;;;;5052985;28;20045;-52
2022/10/10 08:24:05;;;;;;;11.88;5.97;;;;;;;;;;5051540;28;20077;-52
2022/10/10 08:26:33;;;;;;;16.08;6.28;;;;;;;;;;5053156;28;20049;-49
2022/10/10 08:29:00;;;;;;;17.05;6.32;;;;;;;;;;5048320;28;20062;-50
2022/10/10 08:31:29;;;;;;;12.65;6.60;;;;;;;;;;5053979;28;20052;-51
2022/10/10 08:33:56;;;;;;;13.10;5.97;;;;;;;;;;5048853;28;20057;-50
2022/10/10 08:36:26;;;;;;;9.10;4.88;;;;;;;;;;5036154;28;20053;-52
2022/10/10 08:38:58;;;;;;;9.20;4.90;;;;;;;;;;5049045;28;20044;-54
2022/10/10 08:41:31;;;;;;;19.63;6.15;;;;;;;;;;5049415;28;20069;-53
2022/10/10 08:44:01;;;;;;;10.60;5.43;;;;;;;;;;5047838;28;20473;-49
2022/10/10 08:46:33;;;;;;;14.23;5.55;;;;;;;;;;5038395;28;20049;-49
2022/10/10 08:49:10;;;;;;;9.35;6.18;;;;;;;;;;5052409;28;20501;-51
2022/10/10 08:51:47;;;;;;;10.52;5.55;;;;;;;;;;5043910;28;20053;-52
2022/10/10 08:54:25;;;;;;;11.23;5.90;;;;;;;;;;5049097;28;20053;-49
2022/10/10 08:56:52;;;;;;;13.15;5.18;;;;;;;;;;5053000;28;20045;-51
2022/10/10 08:59:25;;;;;;;12.73;5.50;;;;;;;;;;5044957;28;20048;-51
2022/10/10 09:02:01;;;;;;;12.98;4.68;;;;;;;;;;5037316;28;20084;-50
2022/10/10 09:04:32;;;;;;;10.45;5.30;;;;;;;;;;5051705;28;20057;-51
2022/10/10 09:07:07;;;;;;;12.20;4.97;;;;;;;;;;5047757;28;20064;-51
2022/10/10 09:09:42;;;;;;;7.40;4.38;;;;;;;;;;5050378;28;20098;-51
2022/10/10 09:12:17;;;;;;;12.02;4.80;;;;;;;;;;5042655;28;20037;-50
2022/10/10 09:14:48;;;;;;;8.77;4.72;;;;;;;;;;5048019;28;20053;-51
2022/10/10 09:17:20;;;;;;;8.73;4.00;;;;;;;;;;5050791;28;20416;-51
2022/10/10 09:19:56;;;;;;;8.57;4.55;;;;;;;;;;5049280;28;20503;-49
2022/10/10 09:22:25;;;;;;;8.55;4.03;;;;;;;;;;5056808;28;20080;-53
2022/10/10 09:25:13;;;;;;;9.85;4.20;;;;;;;;;;5053649;28;20060;-50
2022/10/10 09:27:43;;;;;;;8.25;4.65;;;;;;;;;;5051795;28;20060;-50
2022/10/10 09:30:15;;;;;;;6.03;3.70;;;;;;;;;;5043014;28;20076;-51
2022/10/10 09:32:45;;;;;;;6.13;3.58;;;;;;;;;;5051742;28;20386;-50
2022/10/10 09:35:24;;;;;;;8.88;3.72;;;;;;;;;;5042432;28;20049;-49
2022/10/10 09:37:55;;;;;;;6.65;3.53;;;;;;;;;;5044091;28;20044;-50
2022/10/10 09:40:33;;;;;;;8.65;3.40;;;;;;;;;;5043120;28;20045;-48
2022/10/10 09:43:07;;;;;;;6.13;3.75;;;;;;;;;;5039661;28;20136;-48
2022/10/10 09:45:36;;;;;;;6.95;3.70;;;;;;;;;;5035726;28;20111;-52
2022/10/10 09:48:03;;;;;;;6.68;3.38;;;;;;;;;;5050550;28;20041;-52
2022/10/10 09:50:32;;;;;;;5.28;3.08;;;;;;;;;;5051112;28;20053;-52
2022/10/10 09:53:02;;;;;;;6.13;3.00;;;;;;;;;;5047305;28;20584;-52
2022/10/10 09:55:36;;;;;;;6.35;3.20;;;;;;;;;;5051296;28;20049;-54
2022/10/10 09:58:14;;;;;;;5.50;3.17;;;;;;;;;;5044722;28;20080;-52
2022/10/10 10:00:42;;;;;;;7.68;2.88;;;;;;;;;;5035134;28;20085;-52
2022/10/10 10:03:19;;;;;;;5.85;2.97;;;;;;;;;;5033498;28;20048;-52
2022/10/10 10:05:49;;;;;;;11.77;3.67;;;;;;;;;;5031094;28;20061;-52
2022/10/10 10:08:35;;;;;;;5.60;3.08;;;;;;;;;;5042755;28;20053;-52
2022/10/10 10:11:12;;;;;;;6.85;2.85;;;;;;;;;;5044750;28;20131;-54
2022/10/10 10:13:42;;;;;;;7.63;3.22;;;;;;;;;;5035667;28;20049;-52
2022/10/10 10:16:13;;;;;;;6.97;2.60;;;;;;;;;;5046554;28;20144;-51
2022/10/10 10:18:42;;;;;;;8.55;3.33;;;;;;;;;;5049142;28;20053;-52
2022/10/10 10:21:12;;;;;;;6.97;3.22;;;;;;;;;;5046633;28;20048;-51
2022/10/10 10:23:42;;;;;;;7.57;2.70;;;;;;;;;;5045952;28;20049;-54
2022/10/10 10:26:23;;;;;;;8.98;2.63;;;;;;;;;;5048151;28;20045;-55
2022/10/10 10:28:59;;;;;;;5.43;2.80;;;;;;;;;;5045802;28;20061;-54
2022/10/10 10:31:36;;;;;;;8.40;2.95;;;;;;;;;;5050477;28;20060;-53
2022/10/10 10:34:14;;;;;;;6.45;2.97;;;;;;;;;;5045369;28;20049;-50
2022/10/10 10:36:53;;;;;;;4.13;2.80;;;;;;;;;;5038115;28;20041;-50
2022/10/10 10:39:31;;;;;;;8.45;2.65;;;;;;;;;;5048353;28;20079;-50
2022/10/10 10:42:07;;;;;;;6.43;3.17;;;;;;;;;;5053107;28;20123;-47
2022/10/10 10:44:43;;;;;;;7.20;3.00;;;;;;;;;;5052248;28;20415;-47
2022/10/10 10:47:28;;;;;;;6.95;2.90;;;;;;;;;;5034556;28;20045;-46
2022/10/10 10:50:05;;;;;;;5.75;2.95;;;;;;;;;;5053318;28;20044;-47
2022/10/10 10:52:40;;;;;;;6.50;2.70;;;;;;;;;;5051966;28;20083;-54
2022/10/10 10:55:16;;;;;;;7.65;3.05;;;;;;;;;;5053376;28;20049;-54
2022/10/10 10:58:12;;;;;;;6.53;2.92;;;;;;;;;;5060937;28;20056;-53
2022/10/10 11:00:43;;;;;;;;;;;;;;;;;;5047443;28;20049;-51
2022/10/10 11:03:20;;;;;;;6.55;2.78;;;;;;;;;;5071010;28;19939;-52
2022/10/10 11:05:55;;;;;;;6.65;2.92;;;;;;;;;;5048230;28;20053;-50
2022/10/10 11:08:39;;;;;;;5.40;2.95;;;;;;;;;;5052037;28;20053;-49
2022/10/10 11:11:18;;;;;;;6.15;2.90;;;;;;;;;;5053736;28;20052;-52
2022/10/10 11:14:03;;;;;;;4.72;2.65;;;;;;;;;;5047299;28;20053;-50
2022/10/10 11:16:33;;;;;;;7.57;3.22;;;;;;;;;;5053114;28;20507;-51
2022/10/10 11:19:09;;;;;;;7.65;2.97;;;;;;;;;;5041216;28;20052;-50
2022/10/10 11:21:39;;;;;;;8.43;3.50;;;;;;;;;;5049520;28;20064;-49
2022/10/10 11:24:12;;;;;;;10.75;3.05;;;;;;;;;;5062183;28;20517;-50
2022/10/10 11:26:49;;;;;;;7.00;2.80;;;;;;;;;;5047393;28;20053;-50
2022/10/10 11:29:21;;;;;;;7.25;2.85;;;;;;;;;;5047957;28;20092;-49
2022/10/10 11:31:54;;;;;;;8.15;3.28;;;;;;;;;;5051309;28;20048;-49
2022/10/10 11:34:24;;;;;;;6.18;3.22;;;;;;;;;;5047992;28;20057;-52
2022/10/10 11:36:54;;;;;;;7.75;3.45;;;;;;;;;;5039739;28;20327;-52
2022/10/10 11:39:31;;;;;;;6.43;3.03;;;;;;;;;;5053255;28;20057;-50
2022/10/10 11:42:00;;;;;;;7.22;3.67;;;;;;;;;;5046172;28;20474;-51
2022/10/10 11:44:44;;;;;;;5.88;3.20;;;;;;;;;;5040773;28;20061;-51
2022/10/10 11:47:14;;;;;;;8.40;3.22;;;;;;;;;;5053560;28;20045;-51
2022/10/10 11:49:51;;;;;;;5.65;3.20;;;;;;;;;;5049819;28;20416;-50
2022/10/10 11:52:27;;;;;;;6.38;2.78;;;;;;;;;;5048140;28;20080;-51
2022/10/10 11:54:58;;;;;;;3.80;2.78;;;;;;;;;;5041826;28;20045;-49
2022/10/10 11:57:32;;;;;;;14.65;3.88;;;;;;;;;;5053077;28;20049;-51
2022/10/10 12:00:03;;;;;;;8.57;2.58;;;;;;;;;;5060840;28;20044;-51
2022/10/10 12:02:32;;;;;;;6.88;2.65;;;;;;;;;;5054616;28;20099;-50
2022/10/10 12:05:04;;;;;;;4.93;2.90;;;;;;;;;;5040421;28;20044;-50
2022/10/10 12:07:38;;;;;;;8.77;3.38;;;;;;;;;;5045545;28;20103;-52
2022/10/10 12:10:16;;;;;;;8.15;3.33;;;;;;;;;;5042941;28;20132;-50
2022/10/10 12:15:28;;;;;;;8.18;3.78;;;;;;;;;;5047436;28;20057;-51
2022/10/10 12:17:59;;;;;;;13.70;4.30;;;;;;;;;;5052157;28;20045;-54
2022/10/10 12:20:34;;;;;;;9.00;3.78;;;;;;;;;;5043469;28;20060;-52
2022/10/10 12:23:26;;;;;;;5.22;3.55;;;;;;;;;;5052119;28;20089;-54
2022/10/10 12:25:56;;;;;;;7.65;3.30;;;;;;;;;;5024476;28;20060;-52
2022/10/10 12:28:26;;;;;;;8.18;3.50;;;;;;;;;;5050462;28;20444;-53
2022/10/10 12:31:15;;;;;;;7.55;3.25;;;;;;;;;;5052771;28;20048;-54
2022/10/10 12:34:00;;;;;;;11.43;3.20;;;;;;;;;;5054122;28;20045;-52
2022/10/10 12:36:59;;;;;;;5.18;3.05;;;;;;;;;;5039916;28;20545;-51
2022/10/10 12:40:02;;;;;;;4.38;2.63;;;;;;;;;;4990459;28;20064;-53
2022/10/10 12:42:35;;;;;;;9.27;3.00;;;;;;;;;;5052570;28;20057;-51
2022/10/10 12:45:05;;;;;;;4.80;3.08;;;;;;;;;;5052408;28;20520;-53
2022/10/10 12:47:41;;;;;;;4.72;3.00;;;;;;;;;;5053054;28;20048;-53
2022/10/10 12:50:23;;;;;;;4.53;2.80;;;;;;;;;;5052808;28;20052;-52
2022/10/10 12:52:52;;;;;;;8.20;3.22;;;;;;;;;;5045197;28;20049;-50
2022/10/10 12:55:23;;;;;;;6.70;3.20;;;;;;;;;;5051345;28;20143;-53
2022/10/10 12:57:53;;;;;;;9.23;3.15;;;;;;;;;;5055648;28;20045;-55
2022/10/10 13:00:23;;;;;;;7.03;3.03;;;;;;;;;;5050859;28;20664;-52
2022/10/10 13:02:54;;;;;;;4.47;2.78;;;;;;;;;;5048216;28;20045;-53
2022/10/10 13:05:27;;;;;;;7.18;3.08;;;;;;;;;;5048951;28;20761;-50
2022/10/10 13:08:03;;;;;;;12.32;3.95;;;;;;;;;;5049436;28;20103;-51
2022/10/10 13:10:38;;;;;;;7.45;3.65;;;;;;;;;;5045419;28;20450;-50
2022/10/10 13:13:17;;;;;;;6.22;2.75;;;;;;;;;;5048454;28;20045;-50
2022/10/10 13:15:50;;;;;;;10.80;3.70;;;;;;;;;;5051902;28;20052;-51
2022/10/10 13:18:34;;;;;;;7.60;3.40;;;;;;;;;;5049000;28;20063;-51
2022/10/10 13:21:10;;;;;;;14.15;3.50;;;;;;;;;;5049511;28;20044;-53
2022/10/10 13:23:40;;;;;;;8.18;3.78;;;;;;;;;;5054853;28;20049;-55
2022/10/10 13:26:20;;;;;;;6.43;2.85;;;;;;;;;;5048022;28;20055;-52
2022/10/10 13:28:46;;;;;;;5.50;3.33;;;;;;;;;;5037487;28;20567;-51
2022/10/10 13:31:13;;;;;;;5.72;3.08;;;;;;;;;;5051097;28;20461;-51
2022/10/10 13:33:56;;;;;;;9.48;3.67;;;;;;;;;;5045763;28;20044;-51
2022/10/10 13:36:27;;;;;;;7.88;3.70;;;;;;;;;;5041838;28;20049;-51
2022/10/10 13:39:04;;;;;;;7.20;3.05;;;;;;;;;;5047398;28;20645;-50
2022/10/10 13:41:39;;;;;;;5.45;3.47;;;;;;;;;;5045674;28;20041;-48
2022/10/10 13:44:14;;;;;;;5.47;3.03;;;;;;;;;;5047812;28;20072;-48
2022/10/10 13:46:41;;;;;;;5.32;3.00;;;;;;;;;;5050473;28;20045;-49
2022/10/10 13:49:26;;;;;;;6.43;3.47;;;;;;;;;;5051372;28;20049;-51
2022/10/10 13:52:04;;;;;;;6.88;3.30;;;;;;;;;;5050315;28;20053;-50
2022/10/10 13:54:46;;;;;;;8.88;3.55;;;;;;;;;;5049228;28;20047;-49
2022/10/10 13:57:19;;;;;;;6.75;3.45;;;;;;;;;;5050688;28;20055;-51
2022/10/10 13:59:57;;;;;;;4.32;2.85;;;;;;;;;;5051364;28;20049;-52
2022/10/10 14:02:28;;;;;;;5.85;3.00;;;;;;;;;;5052142;28;20393;-53
2022/10/10 14:04:57;;;;;;;7.90;3.20;;;;;;;;;;5051197;28;20033;-49
2022/10/10 14:07:35;;;;;;;5.32;3.03;;;;;;;;;;5051862;28;20114;-51
2022/10/10 14:10:06;;;;;;;9.15;3.15;;;;;;;;;;5038672;28;20067;-49
2022/10/10 14:12:49;;;;;;;6.57;3.33;;;;;;;;;;5045346;28;20053;-49
2022/10/10 14:15:36;;;;;;;6.25;3.63;;;;;;;;;;5047126;28;20057;-49
2022/10/10 14:18:13;;;;;;;12.20;3.80;;;;;;;;;;5050470;28;20343;-49
2022/10/10 14:20:42;;;;;;;9.07;3.70;;;;;;;;;;5045457;28;20060;-49
2022/10/10 14:23:12;;;;;;;7.50;3.80;;;;;;;;;;5052358;28;20351;-49
2022/10/10 14:25:39;;;;;;;8.02;4.00;;;;;;;;;;5055354;28;20367;-51
2022/10/10 14:28:09;;;;;;;6.88;3.83;;;;;;;;;;5055501;28;20049;-49
2022/10/10 14:30:38;;;;;;;8.82;3.85;;;;;;;;;;5012489;28;20057;-48
2022/10/10 14:33:09;;;;;;;6.70;4.00;;;;;;;;;;5011756;28;20053;-47
2022/10/10 14:35:40;;;;;;;9.77;4.35;;;;;;;;;;4995750;28;20382;-51
2022/10/10 14:38:18;;;;;;;11.43;4.15;;;;;;;;;;5013107;28;20053;-50
2022/10/10 14:40:47;;;;;;;8.70;4.20;;;;;;;;;;5016116;28;20069;-49
2022/10/10 14:43:21;;;;;;;8.60;4.57;;;;;;;;;;5015247;28;20100;-49
2022/10/10 14:45:52;;;;;;;7.95;4.32;;;;;;;;;;5016158;28;20128;-49
2022/10/10 14:48:19;;;;;;;10.68;4.32;;;;;;;;;;5005862;28;20054;-49
2022/10/10 14:50:49;;;;;;;8.60;4.65;;;;;;;;;;5013257;28;20747;-50
2022/10/10 14:53:19;;;;;;;6.60;3.58;;;;;;;;;;5009773;28;20391;-49
2022/10/10 14:55:49;;;;;;;8.70;4.20;;;;;;;;;;5014164;28;20060;-48
2022/10/10 14:58:21;;;;;;;9.75;4.88;;;;;;;;;;5012009;28;20439;-50
2022/10/10 15:00:47;;;;;;;9.75;4.57;;;;;;;;;;5018325;28;20049;-51
2022/10/10 15:03:17;;;;;;;9.48;4.85;;;;;;;;;;5013246;28;20558;-50
2022/10/10 15:05:46;;;;;;;9.05;4.60;;;;;;;;;;5001774;28;20128;-49
2022/10/10 15:08:16;;;;;;;13.60;4.70;;;;;;;;;;5004673;28;20560;-51
2022/10/10 15:10:44;;;;;;;12.43;4.55;;;;;;;;;;5000108;28;20054;-50
2022/10/10 15:13:14;;;;;;;8.13;3.78;;;;;;;;;;5004156;28;20072;-49